Allerton, Iowa
Current Conditions -  °F | °C
As of 6:55 AM on Sunday 21 Dec 2014 (Local Time) from KCNC Reporting Station
Haze Haze  
Wind Chill: 29°   Ceiling: 1000
Heat Index: 37°   Visibility: 6mi
Dew Point: 36°   Wind: 13mph
Humidity: 93%   Direction: 190°S
Pressure: 30.03"   Gusts: NA
Location:  40.71°N, 93.37°W
Report Text: KCNC 211255Z AUTO 19011KT 6SM BR OVC010 03/02 A3003 RMK AO2
Loading
Personal Weather Stations






























Interactive Weather Map New forecast layout! Learn more

10-Day Weather Forecast

Advertisements
Track Severe Weather on mobile